Time,TemperatureF,DewpointF,PressureIn,WindDirection,WindDirectionDegrees,WindSpeedMPH,WindSpeedGustMPH,Humidity,HourlyPrecipIn,Conditions,Clouds,dailyrainin,SolarRadiationWatts/m^2,SoftwareType,DateUTC
2013-06-04 00:01:00,57.5,46.4,29.85,NW,310,0.0,3.0,66,0.00,,,0.00,0.0,WUHU216DAVISWMX,2013-06-04 04:01:00,
2013-06-04 00:06:00,57.5,46.8,29.85,NW,310,0.0,2.0,67,0.00,,,0.00,0.0,WUHU216DAVISWMX,2013-06-04 04:06:00,
2013-06-04 00:11:00,57.3,46.6,29.85,NW,310,2.0,3.0,67,0.00,,,0.00,0.0,WUHU216DAVISWMX,2013-06-04 04:11:00,
2013-06-04 00:16:00,57.2,46.5,29.85,NW,310,1.0,3.0,67,0.00,,,0.00,0.0,WUHU216DAVISWMX,2013-06-04 04:16:00,
2013-06-04 00:21:00,57.2,46.5,29.85,NW,310,0.0,3.0,67,0.00,,,0.00,0.0,WUHU216DAVISWMX,2013-06-04 04:21:00,
2013-06-04 00:26:00,57.1,46.4,29.84,West,273,0.0,4.0,67,0.00,,,0.00,0.0,WUHU216DAVISWMX,2013-06-04 04:26:00,
2013-06-04 00:31:00,57.2,46.1,29.84,West,275,4.0,4.0,66,0.00,,,0.00,0.0,WUHU216DAVISWMX,2013-06-04 04:31:00,
2013-06-04 00:36:00,57.3,46.2,29.84,WNW,301,1.0,6.0,66,0.00,,,0.00,0.0,WUHU216DAVISWMX,2013-06-04 04:36:00,
2013-06-04 00:41:00,57.2,46.5,29.84,WNW,302,1.0,6.0,67,0.00,,,0.00,0.0,WUHU216DAVISWMX,2013-06-04 04:41:00,
2013-06-04 00:46:00,57.2,46.1,29.84,WNW,302,0.0,6.0,66,0.00,,,0.00,0.0,WUHU216DAVISWMX,2013-06-04 04:46:00,
2013-06-04 00:52:00,57.1,46.0,29.85,WNW,301,2.0,6.0,66,0.00,,,0.00,0.0,WUHU216DAVISWMX,2013-06-04 04:52:00,
2013-06-04 00:57:00,57.2,46.1,29.85,WNW,302,2.0,6.0,66,0.00,,,0.00,0.0,WUHU216DAVISWMX,2013-06-04 04:57:00,
2013-06-04 01:02:00,57.1,46.4,29.85,WNW,300,4.0,5.0,67,0.00,,,0.00,0.0,WUHU216DAVISWMX,2013-06-04 05:02:00,
2013-06-04 01:07:00,57.1,46.0,29.85,WNW,300,4.0,5.0,66,0.00,,,0.00,0.0,WUHU216DAVISWMX,2013-06-04 05:07:00,
2013-06-04 01:12:00,57.2,45.7,29.85,NW,306,0.0,6.0,65,0.00,,,0.00,0.0,WUHU216DAVISWMX,2013-06-04 05:12:00,
2013-06-04 01:17:00,57.1,46.0,29.85,NW,304,5.0,6.0,66,0.00,,,0.00,0.0,WUHU216DAVISWMX,2013-06-04 05:17:00,
2013-06-04 01:22:00,57.1,45.6,29.86,WSW,250,1.0,7.0,65,0.00,,,0.00,0.0,WUHU216DAVISWMX,2013-06-04 05:22:00,
2013-06-04 01:27:00,57.1,45.2,29.86,WNW,303,1.0,9.0,64,0.00,,,0.00,0.0,WUHU216DAVISWMX,2013-06-04 05:27:00,
2013-06-04 01:32:00,57.0,45.1,29.86,WNW,303,1.0,9.0,64,0.00,,,0.00,0.0,WUHU216DAVISWMX,2013-06-04 05:32:00,
2013-06-04 01:37:00,56.8,44.9,29.86,NW,304,0.0,5.0,64,0.00,,,0.00,0.0,WUHU216DAVISWMX,2013-06-04 05:37:00,
2013-06-04 01:42:00,56.6,45.1,29.86,NW,313,0.0,5.0,65,0.00,,,0.00,0.0,WUHU216DAVISWMX,2013-06-04 05:42:00,
2013-06-04 01:47:00,56.3,45.6,29.86,NW,313,4.0,4.0,67,0.00,,,0.00,0.0,WUHU216DAVISWMX,2013-06-04 05:47:00,
2013-06-04 01:52:00,56.1,45.0,29.86,NW,313,2.0,4.0,66,0.00,,,0.00,0.0,WUHU216DAVISWMX,2013-06-04 05:52:00,
2013-06-04 01:57:00,55.8,44.3,29.86,NW,313,2.0,4.0,65,0.00,,,0.00,0.0,WUHU216DAVISWMX,2013-06-04 05:57:00,
2013-06-04 02:02:00,55.7,43.4,29.86,NW,313,0.0,3.0,63,0.00,,,0.00,0.0,WUHU216DAVISWMX,2013-06-04 06:02:00,
2013-06-04 02:07:00,55.6,43.3,29.86,NW,313,2.0,5.0,63,0.00,,,0.00,0.0,WUHU216DAVISWMX,2013-06-04 06:07:00,
2013-06-04 02:12:00,55.6,42.9,29.86,NW,307,0.0,6.0,62,0.00,,,0.00,0.0,WUHU216DAVISWMX,2013-06-04 06:12:00,
2013-06-04 02:17:00,55.6,43.3,29.86,NW,307,0.0,6.0,63,0.00,,,0.00,0.0,WUHU216DAVISWMX,2013-06-04 06:17:00,
2013-06-04 02:22:00,55.1,43.3,29.86,NW,307,0.0,2.0,64,0.00,,,0.00,0.0,WUHU216DAVISWMX,2013-06-04 06:22:00,
2013-06-04 02:27:00,54.7,42.9,29.86,NW,307,0.0,1.0,64,0.00,,,0.00,0.0,WUHU216DAVISWMX,2013-06-04 06:27:00,
2013-06-04 02:32:00,54.3,43.3,29.86,NW,307,0.0,0.0,66,0.00,,,0.00,0.0,WUHU216DAVISWMX,2013-06-04 06:32:00,
2013-06-04 02:37:00,53.7,43.1,29.86,NW,307,0.0,2.0,67,0.00,,,0.00,0.0,WUHU216DAVISWMX,2013-06-04 06:37:00,
2013-06-04 02:42:00,53.3,42.7,29.86,NW,307,0.0,2.0,67,0.00,,,0.00,0.0,WUHU216DAVISWMX,2013-06-04 06:42:00,
2013-06-04 02:47:00,53.0,43.2,29.87,NW,307,0.0,0.0,69,0.00,,,0.00,0.0,WUHU216DAVISWMX,2013-06-04 06:47:00,
2013-06-04 02:52:00,52.6,43.2,29.87,NW,307,0.0,0.0,70,0.00,,,0.00,0.0,WUHU216DAVISWMX,2013-06-04 06:52:00,
2013-06-04 02:57:00,52.2,43.2,29.87,NW,307,0.0,0.0,71,0.00,,,0.00,0.0,WUHU216DAVISWMX,2013-06-04 06:57:00,
2013-06-04 03:02:00,51.8,42.8,29.87,NW,307,0.0,2.0,71,0.00,,,0.00,0.0,WUHU216DAVISWMX,2013-06-04 07:02:00,
2013-06-04 03:07:00,51.5,43.6,29.87,NW,307,1.0,2.0,74,0.00,,,0.00,0.0,WUHU216DAVISWMX,2013-06-04 07:07:00,
2013-06-04 03:12:00,51.0,43.1,29.87,NW,307,0.0,2.0,74,0.00,,,0.00,0.0,WUHU216DAVISWMX,2013-06-04 07:12:00,
2013-06-04 03:17:00,50.7,43.5,29.87,NW,307,0.0,1.0,76,0.00,,,0.00,0.0,WUHU216DAVISWMX,2013-06-04 07:17:00,
2013-06-04 03:22:00,50.4,43.2,29.87,NW,307,0.0,1.0,76,0.00,,,0.00,0.0,WUHU216DAVISWMX,2013-06-04 07:22:00,
2013-06-04 03:27:00,50.1,42.6,29.88,NW,307,0.0,1.0,75,0.00,,,0.00,0.0,WUHU216DAVISWMX,2013-06-04 07:27:00,
2013-06-04 03:32:00,50.0,42.1,29.88,NW,307,0.0,1.0,74,0.00,,,0.00,0.0,WUHU216DAVISWMX,2013-06-04 07:32:00,
2013-06-04 03:37:00,49.9,42.4,29.88,NW,307,0.0,0.0,75,0.00,,,0.00,0.0,WUHU216DAVISWMX,2013-06-04 07:37:00,
2013-06-04 03:42:00,49.8,42.3,29.87,NW,307,0.0,2.0,75,0.00,,,0.00,0.0,WUHU216DAVISWMX,2013-06-04 07:42:00,
2013-06-04 03:47:00,50.0,41.4,29.87,WNW,301,3.0,3.0,72,0.00,,,0.00,0.0,WUHU216DAVISWMX,2013-06-04 07:47:00,
2013-06-04 03:52:00,50.7,41.4,29.87,WNW,301,2.0,4.0,70,0.00,,,0.00,0.0,WUHU216DAVISWMX,2013-06-04 07:52:00,
2013-06-04 03:57:00,51.7,40.0,29.87,WNW,301,0.0,4.0,64,0.00,,,0.00,0.0,WUHU216DAVISWMX,2013-06-04 07:57:00,
2013-06-04 04:02:00,51.9,40.2,29.88,WNW,301,0.0,4.0,64,0.00,,,0.00,0.0,WUHU216DAVISWMX,2013-06-04 08:02:00,
2013-06-04 04:07:00,52.2,39.7,29.87,NW,304,0.0,8.0,62,0.00,,,0.00,0.0,WUHU216DAVISWMX,2013-06-04 08:07:00,
2013-06-04 04:12:00,52.6,39.2,29.87,WNW,291,0.0,9.0,60,0.00,,,0.00,0.0,WUHU216DAVISWMX,2013-06-04 08:12:00,
2013-06-04 04:17:00,52.9,40.8,29.87,WNW,291,0.0,9.0,63,0.00,,,0.00,0.0,WUHU216DAVISWMX,2013-06-04 08:17:00,
2013-06-04 04:22:00,52.7,39.3,29.88,West,272,0.0,5.0,60,0.00,,,0.00,0.0,WUHU216DAVISWMX,2013-06-04 08:22:00,
2013-06-04 04:27:00,52.4,41.1,29.88,West,272,0.0,5.0,65,0.00,,,0.00,0.0,WUHU216DAVISWMX,2013-06-04 08:27:00,
2013-06-04 04:32:00,52.0,39.9,29.88,NW,316,0.0,6.0,63,0.00,,,0.00,0.0,WUHU216DAVISWMX,2013-06-04 08:32:00,
2013-06-04 04:37:00,52.6,39.2,29.88,WNW,296,3.0,11.0,60,0.00,,,0.00,0.0,WUHU216DAVISWMX,2013-06-04 08:37:00,
2013-06-04 04:42:00,53.1,39.2,29.88,WNW,294,1.0,11.0,59,0.00,,,0.00,0.0,WUHU216DAVISWMX,2013-06-04 08:42:00,
2013-06-04 04:47:00,53.3,39.9,29.88,WNW,299,4.0,11.0,60,0.00,,,0.00,0.0,WUHU216DAVISWMX,2013-06-04 08:47:00,
2013-06-04 04:52:00,53.2,39.8,29.88,WNW,298,1.0,9.0,60,0.00,,,0.00,0.0,WUHU216DAVISWMX,2013-06-04 08:52:00,
2013-06-04 04:57:00,53.1,39.7,29.88,WNW,298,1.0,4.0,60,0.00,,,0.00,0.0,WUHU216DAVISWMX,2013-06-04 08:57:00,
2013-06-04 05:02:00,52.8,39.4,29.89,WNW,298,0.0,4.0,60,0.00,,,0.00,0.0,WUHU216DAVISWMX,2013-06-04 09:02:00,
2013-06-04 05:07:00,52.8,39.8,29.89,NW,318,1.0,7.0,61,0.00,,,0.00,0.0,WUHU216DAVISWMX,2013-06-04 09:07:00,
2013-06-04 05:12:00,52.7,39.3,29.89,NW,319,3.0,7.0,60,0.00,,,0.00,0.0,WUHU216DAVISWMX,2013-06-04 09:12:00,
2013-06-04 05:17:00,52.6,39.6,29.90,NW,321,1.0,7.0,61,0.00,,,0.00,0.0,WUHU216DAVISWMX,2013-06-04 09:17:00,
2013-06-04 05:22:00,52.4,39.4,29.89,NW,320,0.0,5.0,61,0.00,,,0.00,0.0,WUHU216DAVISWMX,2013-06-04 09:22:00,
2013-06-04 05:27:00,52.1,40.0,29.89,NW,321,0.0,5.0,63,0.00,,,0.00,0.0,WUHU216DAVISWMX,2013-06-04 09:27:00,
2013-06-04 05:32:00,51.8,39.7,29.90,NW,321,0.0,2.0,63,0.00,,,0.00,0.0,WUHU216DAVISWMX,2013-06-04 09:32:00,
2013-06-04 05:37:00,51.5,39.8,29.90,NW,321,0.0,2.0,64,0.00,,,0.00,0.0,WUHU216DAVISWMX,2013-06-04 09:37:00,
2013-06-04 05:42:00,51.1,39.9,29.90,NW,321,0.0,0.0,65,0.00,,,0.00,0.0,WUHU216DAVISWMX,2013-06-04 09:42:00,
2013-06-04 05:47:00,50.9,40.4,29.90,NW,321,0.0,3.0,67,0.00,,,0.00,0.0,WUHU216DAVISWMX,2013-06-04 09:47:00,
2013-06-04 05:52:00,50.7,40.3,29.91,NW,321,0.0,3.0,67,0.00,,,0.00,0.0,WUHU216DAVISWMX,2013-06-04 09:52:00,
2013-06-04 05:57:00,50.6,40.5,29.91,NW,320,0.0,0.0,68,0.00,,,0.00,0.0,WUHU216DAVISWMX,2013-06-04 09:57:00,
2013-06-04 06:02:00,50.3,40.6,29.91,NW,321,0.0,0.0,69,0.00,,,0.00,0.0,WUHU216DAVISWMX,2013-06-04 10:02:00,
2013-06-04 06:07:00,50.0,41.1,29.91,NW,321,0.0,0.0,71,0.00,,,0.00,0.0,WUHU216DAVISWMX,2013-06-04 10:07:00,
2013-06-04 06:12:00,49.8,41.6,29.91,NW,321,0.0,0.0,73,0.00,,,0.00,0.0,WUHU216DAVISWMX,2013-06-04 10:12:00,
2013-06-04 06:17:00,49.6,41.4,29.92,NW,321,0.0,0.0,73,0.00,,,0.00,0.0,WUHU216DAVISWMX,2013-06-04 10:17:00,
2013-06-04 06:22:00,49.4,41.9,29.92,NW,320,0.0,0.0,75,0.00,,,0.00,0.0,WUHU216DAVISWMX,2013-06-04 10:22:00,
2013-06-04 06:27:00,49.9,41.0,29.92,NW,320,0.0,4.0,71,0.00,,,0.00,0.0,WUHU216DAVISWMX,2013-06-04 10:27:00,
2013-06-04 06:32:00,50.7,41.0,29.92,NW,321,2.0,4.0,69,0.00,,,0.00,0.0,WUHU216DAVISWMX,2013-06-04 10:32:00,
2013-06-04 06:37:00,51.6,40.7,29.92,NW,308,2.0,7.0,66,0.00,,,0.00,0.0,WUHU216DAVISWMX,2013-06-04 10:37:00,
2013-06-04 06:42:00,52.5,40.8,29.92,WNW,298,5.0,7.0,64,0.00,,,0.00,0.0,WUHU216DAVISWMX,2013-06-04 10:42:00,
2013-06-04 06:47:00,53.2,40.6,29.92,WNW,302,1.0,12.0,62,0.00,,,0.00,0.0,WUHU216DAVISWMX,2013-06-04 10:47:00,
2013-06-04 06:52:00,54.0,41.0,29.92,NW,316,4.0,12.0,61,0.00,,,0.00,0.0,WUHU216DAVISWMX,2013-06-04 10:52:00,
2013-06-04 06:57:00,54.5,41.0,29.92,NW,314,6.0,7.0,60,0.00,,,0.00,0.0,WUHU216DAVISWMX,2013-06-04 10:57:00,
2013-06-04 07:02:00,55.0,41.5,29.93,NW,304,0.0,9.0,60,0.00,,,0.00,0.0,WUHU216DAVISWMX,2013-06-04 11:02:00,
2013-06-04 07:07:00,55.0,41.0,29.93,NW,310,6.0,10.0,59,0.00,,,0.00,0.0,WUHU216DAVISWMX,2013-06-04 11:07:00,
2013-06-04 07:12:00,55.2,41.2,29.93,NW,308,3.0,10.0,59,0.00,,,0.00,0.0,WUHU216DAVISWMX,2013-06-04 11:12:00,
2013-06-04 07:17:00,55.4,41.4,29.93,WNW,301,4.0,11.0,59,0.00,,,0.00,0.0,WUHU216DAVISWMX,2013-06-04 11:17:00,
2013-06-04 07:22:00,55.4,41.4,29.92,NW,319,3.0,11.0,59,0.00,,,0.00,0.0,WUHU216DAVISWMX,2013-06-04 11:22:00,
2013-06-04 07:27:00,55.6,41.6,29.93,NNW,332,5.0,11.0,59,0.00,,,0.00,0.0,WUHU216DAVISWMX,2013-06-04 11:27:00,
2013-06-04 07:32:00,55.6,41.1,29.92,NW,321,5.0,11.0,58,0.00,,,0.00,0.0,WUHU216DAVISWMX,2013-06-04 11:32:00,
2013-06-04 07:37:00,55.7,41.2,29.92,NW,314,7.0,13.0,58,0.00,,,0.00,0.0,WUHU216DAVISWMX,2013-06-04 11:37:00,
2013-06-04 07:42:00,55.7,41.7,29.93,NW,307,5.0,13.0,59,0.00,,,0.00,0.0,WUHU216DAVISWMX,2013-06-04 11:42:00,
2013-06-04 07:47:00,56.2,42.2,29.93,NNW,329,3.0,12.0,59,0.00,,,0.00,0.0,WUHU216DAVISWMX,2013-06-04 11:47:00,
2013-06-04 07:52:00,56.5,42.0,29.93,WNW,290,2.0,12.0,58,0.00,,,0.00,0.0,WUHU216DAVISWMX,2013-06-04 11:52:00,
2013-06-04 07:57:00,56.9,42.4,29.93,NW,310,2.0,8.0,58,0.00,,,0.00,0.0,WUHU216DAVISWMX,2013-06-04 11:57:00,
2013-06-04 08:02:00,57.1,42.6,29.93,NNW,332,5.0,10.0,58,0.00,,,0.00,0.0,WUHU216DAVISWMX,2013-06-04 12:02:00,
2013-06-04 08:07:00,57.2,42.7,29.93,WNW,300,5.0,10.0,58,0.00,,,0.00,0.0,WUHU216DAVISWMX,2013-06-04 12:07:00,
2013-06-04 08:12:00,57.2,43.1,29.93,NW,320,5.0,9.0,59,0.00,,,0.00,0.0,WUHU216DAVISWMX,2013-06-04 12:12:00,
2013-06-04 08:17:00,57.6,43.5,29.93,WNW,299,4.0,10.0,59,0.00,,,0.00,0.0,WUHU216DAVISWMX,2013-06-04 12:17:00,
2013-06-04 08:22:00,58.2,43.6,29.93,NW,310,3.0,10.0,58,0.00,,,0.00,0.0,WUHU216DAVISWMX,2013-06-04 12:22:00,
2013-06-04 08:27:00,58.1,43.0,29.93,NNW,345,6.0,10.0,57,0.00,,,0.00,0.0,WUHU216DAVISWMX,2013-06-04 12:27:00,
2013-06-04 08:32:00,58.1,43.5,29.93,NW,315,6.0,10.0,58,0.00,,,0.00,0.0,WUHU216DAVISWMX,2013-06-04 12:32:00,
2013-06-04 08:37:00,58.3,43.2,29.93,WNW,298,4.0,10.0,57,0.00,,,0.00,0.0,WUHU216DAVISWMX,2013-06-04 12:37:00,
2013-06-04 08:42:00,58.2,43.1,29.93,NW,313,4.0,10.0,57,0.00,,,0.00,0.0,WUHU216DAVISWMX,2013-06-04 12:42:00,
2013-06-04 08:47:00,58.5,43.9,29.93,NW,318,3.0,10.0,58,0.00,,,0.00,0.0,WUHU216DAVISWMX,2013-06-04 12:47:00,
2013-06-04 08:52:00,58.8,43.7,29.93,NW,306,6.0,8.0,57,0.00,,,0.00,0.0,WUHU216DAVISWMX,2013-06-04 12:52:00,
2013-06-04 08:57:00,59.0,44.3,29.93,WNW,300,3.0,8.0,58,0.00,,,0.00,0.0,WUHU216DAVISWMX,2013-06-04 12:57:00,
2013-06-04 09:02:00,59.1,43.5,29.93,NW,322,1.0,11.0,56,0.00,,,0.00,0.0,WUHU216DAVISWMX,2013-06-04 13:02:00,
2013-06-04 09:07:00,59.4,44.7,29.93,NW,313,3.0,11.0,58,0.00,,,0.00,0.0,WUHU216DAVISWMX,2013-06-04 13:07:00,
2013-06-04 09:12:00,59.9,44.3,29.94,NW,311,5.0,10.0,56,0.00,,,0.00,0.0,WUHU216DAVISWMX,2013-06-04 13:12:00,
2013-06-04 09:17:00,60.2,44.1,29.94,WNW,287,4.0,10.0,55,0.00,,,0.00,0.0,WUHU216DAVISWMX,2013-06-04 13:17:00,
2013-06-04 09:23:00,60.3,43.7,29.93,WNW,295,1.0,8.0,54,0.00,,,0.00,0.0,WUHU216DAVISWMX,2013-06-04 13:23:00,
2013-06-04 09:28:00,60.5,42.8,29.93,NW,307,5.0,7.0,52,0.00,,,0.00,0.0,WUHU216DAVISWMX,2013-06-04 13:28:00,
2013-06-04 09:33:00,60.4,43.7,29.93,NW,313,5.0,7.0,54,0.00,,,0.00,0.0,WUHU216DAVISWMX,2013-06-04 13:33:00,
2013-06-04 09:38:00,60.4,42.7,29.93,NW,322,5.0,10.0,52,0.00,,,0.00,0.0,WUHU216DAVISWMX,2013-06-04 13:38:00,
2013-06-04 09:43:00,60.7,43.5,29.93,NW,317,9.0,10.0,53,0.00,,,0.00,0.0,WUHU216DAVISWMX,2013-06-04 13:43:00,
2013-06-04 09:48:00,60.5,42.8,29.93,WNW,301,3.0,10.0,52,0.00,,,0.00,0.0,WUHU216DAVISWMX,2013-06-04 13:48:00,
2013-06-04 09:53:00,60.8,44.1,29.92,WSW,257,2.0,10.0,54,0.00,,,0.00,0.0,WUHU216DAVISWMX,2013-06-04 13:53:00,
2013-06-04 09:58:00,61.8,46.5,29.93,WSW,245,4.0,5.0,57,0.00,,,0.00,0.0,WUHU216DAVISWMX,2013-06-04 13:58:00,
2013-06-04 10:03:00,61.8,45.5,29.93,WSW,245,2.0,6.0,55,0.00,,,0.00,0.0,WUHU216DAVISWMX,2013-06-04 14:03:00,
2013-06-04 10:08:00,62.4,46.6,29.92,NW,314,7.0,7.0,56,0.00,,,0.00,0.0,WUHU216DAVISWMX,2013-06-04 14:08:00,
2013-06-04 10:13:00,62.1,44.3,29.93,NW,322,3.0,11.0,52,0.00,,,0.00,0.0,WUHU216DAVISWMX,2013-06-04 14:13:00,
2013-06-04 10:18:00,61.8,44.5,29.93,NW,315,7.0,11.0,53,0.00,,,0.00,0.0,WUHU216DAVISWMX,2013-06-04 14:18:00,
2013-06-04 10:23:00,62.0,44.7,29.93,NW,311,1.0,9.0,53,0.00,,,0.00,0.0,WUHU216DAVISWMX,2013-06-04 14:23:00,
2013-06-04 10:28:00,62.5,45.2,29.93,NW,313,7.0,14.0,53,0.00,,,0.00,0.0,WUHU216DAVISWMX,2013-06-04 14:28:00,
2013-06-04 10:33:00,62.2,44.4,29.93,NNW,329,7.0,14.0,52,0.00,,,0.00,0.0,WUHU216DAVISWMX,2013-06-04 14:33:00,
2013-06-04 10:38:00,62.6,44.8,29.93,WNW,300,6.0,11.0,52,0.00,,,0.00,0.0,WUHU216DAVISWMX,2013-06-04 14:38:00,
2013-06-04 10:43:00,62.9,45.6,29.94,WNW,297,8.0,11.0,53,0.00,,,0.00,0.0,WUHU216DAVISWMX,2013-06-04 14:43:00,
2013-06-04 10:48:00,63.0,44.6,29.94,WNW,286,3.0,10.0,51,0.00,,,0.00,0.0,WUHU216DAVISWMX,2013-06-04 14:48:00,
2013-06-04 10:53:00,63.1,44.2,29.94,NNW,344,5.0,14.0,50,0.00,,,0.00,0.0,WUHU216DAVISWMX,2013-06-04 14:53:00,
2013-06-04 10:58:00,62.6,44.3,29.94,NNW,347,3.0,14.0,51,0.00,,,0.00,0.0,WUHU216DAVISWMX,2013-06-04 14:58:00,
2013-06-04 11:03:00,62.1,44.3,29.94,NNW,340,4.0,14.0,52,0.00,,,0.00,0.0,WUHU216DAVISWMX,2013-06-04 15:03:00,
2013-06-04 11:08:00,62.4,44.6,29.94,WNW,298,3.0,10.0,52,0.00,,,0.00,0.0,WUHU216DAVISWMX,2013-06-04 15:08:00,
2013-06-04 11:13:00,63.1,44.7,29.94,NW,311,6.0,10.0,51,0.00,,,0.00,0.0,WUHU216DAVISWMX,2013-06-04 15:13:00,
2013-06-04 11:18:00,62.4,43.5,29.94,NNW,334,1.0,17.0,50,0.00,,,0.00,0.0,WUHU216DAVISWMX,2013-06-04 15:18:00,
2013-06-04 11:23:00,62.4,44.1,29.94,WSW,258,1.0,17.0,51,0.00,,,0.00,0.0,WUHU216DAVISWMX,2013-06-04 15:23:00,
2013-06-04 11:28:00,63.2,44.3,29.94,NW,309,5.0,16.0,50,0.00,,,0.00,0.0,WUHU216DAVISWMX,2013-06-04 15:28:00,
2013-06-04 11:33:00,63.5,44.5,29.94,WNW,294,6.0,16.0,50,0.00,,,0.00,0.0,WUHU216DAVISWMX,2013-06-04 15:33:00,
2013-06-04 11:38:00,63.8,43.7,29.94,NNW,328,7.0,12.0,48,0.00,,,0.00,0.0,WUHU216DAVISWMX,2013-06-04 15:38:00,
2013-06-04 11:43:00,63.6,44.6,29.94,West,276,2.0,12.0,50,0.00,,,0.00,0.0,WUHU216DAVISWMX,2013-06-04 15:43:00,
2013-06-04 11:48:00,63.5,44.5,29.94,NW,313,4.0,10.0,50,0.00,,,0.00,0.0,WUHU216DAVISWMX,2013-06-04 15:48:00,
2013-06-04 11:53:00,63.6,44.6,29.94,NW,308,3.0,11.0,50,0.00,,,0.00,0.0,WUHU216DAVISWMX,2013-06-04 15:53:00,
2013-06-04 11:58:00,64.1,45.1,29.95,WNW,300,3.0,11.0,50,0.00,,,0.00,0.0,WUHU216DAVISWMX,2013-06-04 15:58:00,
2013-06-04 12:03:00,64.7,44.6,29.94,NW,313,1.0,11.0,48,0.00,,,0.00,0.0,WUHU216DAVISWMX,2013-06-04 16:03:00,
2013-06-04 12:08:00,64.8,43.5,29.95,NW,315,10.0,17.0,46,0.00,,,0.00,0.0,WUHU216DAVISWMX,2013-06-04 16:08:00,
2013-06-04 12:13:00,64.7,45.1,29.95,WSW,243,1.0,17.0,49,0.00,,,0.00,0.0,WUHU216DAVISWMX,2013-06-04 16:13:00,
2013-06-04 12:18:00,65.1,44.3,29.94,NW,306,4.0,13.0,47,0.00,,,0.00,0.0,WUHU216DAVISWMX,2013-06-04 16:18:00,
2013-06-04 12:23:00,65.6,45.4,29.95,NW,321,3.0,12.0,48,0.00,,,0.00,0.0,WUHU216DAVISWMX,2013-06-04 16:23:00,
2013-06-04 12:28:00,65.7,45.5,29.95,NW,324,6.0,12.0,48,0.00,,,0.00,0.0,WUHU216DAVISWMX,2013-06-04 16:28:00,
2013-06-04 12:33:00,65.2,45.6,29.95,NNW,345,1.0,12.0,49,0.00,,,0.00,0.0,WUHU216DAVISWMX,2013-06-04 16:33:00,
2013-06-04 12:38:00,64.9,45.3,29.95,NW,326,5.0,12.0,49,0.00,,,0.00,0.0,WUHU216DAVISWMX,2013-06-04 16:38:00,
2013-06-04 12:43:00,64.4,44.8,29.95,NW,304,7.0,11.0,49,0.00,,,0.00,0.0,WUHU216DAVISWMX,2013-06-04 16:43:00,
2013-06-04 12:48:00,64.5,44.9,29.95,NW,318,4.0,11.0,49,0.00,,,0.00,0.0,WUHU216DAVISWMX,2013-06-04 16:48:00,
2013-06-04 12:53:00,64.6,44.5,29.95,NW,319,2.0,12.0,48,0.00,,,0.00,0.0,WUHU216DAVISWMX,2013-06-04 16:53:00,
2013-06-04 12:58:00,64.4,44.8,29.95,NW,305,2.0,12.0,49,0.00,,,0.00,0.0,WUHU216DAVISWMX,2013-06-04 16:58:00,
2013-06-04 13:03:00,64.7,45.7,29.95,NW,308,5.0,11.0,50,0.00,,,0.00,0.0,WUHU216DAVISWMX,2013-06-04 17:03:00,
2013-06-04 13:08:00,66.2,46.5,29.95,NNW,328,7.0,11.0,49,0.00,,,0.00,0.0,WUHU216DAVISWMX,2013-06-04 17:08:00,
2013-06-04 13:13:00,65.8,45.0,29.95,NW,307,5.0,14.0,47,0.00,,,0.00,0.0,WUHU216DAVISWMX,2013-06-04 17:13:00,
2013-06-04 13:18:00,65.1,44.3,29.95,NW,311,9.0,14.0,47,0.00,,,0.00,0.0,WUHU216DAVISWMX,2013-06-04 17:18:00,
2013-06-04 13:23:00,64.8,44.6,29.95,NW,318,4.0,15.0,48,0.00,,,0.00,0.0,WUHU216DAVISWMX,2013-06-04 17:23:00,
2013-06-04 13:28:00,64.9,45.3,29.95,WNW,299,3.0,15.0,49,0.00,,,0.00,0.0,WUHU216DAVISWMX,2013-06-04 17:28:00,
2013-06-04 13:33:00,65.1,45.5,29.95,NW,320,6.0,11.0,49,0.00,,,0.00,0.0,WUHU216DAVISWMX,2013-06-04 17:33:00,
2013-06-04 13:38:00,65.3,45.1,29.95,NW,304,6.0,16.0,48,0.00,,,0.00,0.0,WUHU216DAVISWMX,2013-06-04 17:38:00,
2013-06-04 13:43:00,65.4,45.8,29.96,NNW,338,8.0,16.0,49,0.00,,,0.00,0.0,WUHU216DAVISWMX,2013-06-04 17:43:00,
2013-06-04 13:48:00,65.2,45.0,29.95,NW,313,5.0,10.0,48,0.00,,,0.00,0.0,WUHU216DAVISWMX,2013-06-04 17:48:00,
2013-06-04 13:53:00,65.0,45.4,29.96,NW,320,1.0,8.0,49,0.00,,,0.00,0.0,WUHU216DAVISWMX,2013-06-04 17:53:00,
2013-06-04 13:58:00,65.2,45.6,29.95,South,186,3.0,10.0,49,0.00,,,0.00,0.0,WUHU216DAVISWMX,2013-06-04 17:58:00,
2013-06-04 14:03:00,65.4,45.2,29.95,NNW,327,5.0,18.0,48,0.00,,,0.00,0.0,WUHU216DAVISWMX,2013-06-04 18:03:00,
2013-06-04 14:08:00,65.9,47.3,29.96,NW,314,13.0,18.0,51,0.00,,,0.00,0.0,WUHU216DAVISWMX,2013-06-04 18:08:00,
2013-06-04 14:13:00,66.6,43.9,29.96,NNW,339,6.0,13.0,44,0.00,,,0.00,0.0,WUHU216DAVISWMX,2013-06-04 18:13:00,
2013-06-04 14:18:00,66.4,45.0,29.95,NW,308,4.0,13.0,46,0.00,,,0.00,0.0,WUHU216DAVISWMX,2013-06-04 18:18:00,
2013-06-04 14:23:00,66.6,45.7,29.96,NW,322,15.0,15.0,47,0.00,,,0.00,0.0,WUHU216DAVISWMX,2013-06-04 18:23:00,
2013-06-04 14:28:00,66.3,45.4,29.96,NW,316,10.0,16.0,47,0.00,,,0.00,0.0,WUHU216DAVISWMX,2013-06-04 18:28:00,
2013-06-04 14:33:00,66.4,46.1,29.95,West,268,3.0,16.0,48,0.00,,,0.00,0.0,WUHU216DAVISWMX,2013-06-04 18:33:00,
2013-06-04 14:38:00,66.3,45.4,29.96,NW,312,3.0,11.0,47,0.00,,,0.00,0.0,WUHU216DAVISWMX,2013-06-04 18:38:00,
2013-06-04 14:43:00,66.1,45.3,29.96,West,271,0.0,11.0,47,0.00,,,0.00,0.0,WUHU216DAVISWMX,2013-06-04 18:43:00,
2013-06-04 14:48:00,66.4,46.1,29.95,West,278,7.0,10.0,48,0.00,,,0.00,0.0,WUHU216DAVISWMX,2013-06-04 18:48:00,
2013-06-04 14:53:00,67.0,46.1,29.96,WNW,300,8.0,11.0,47,0.00,,,0.00,0.0,WUHU216DAVISWMX,2013-06-04 18:53:00,
2013-06-04 14:58:00,67.7,45.5,29.96,NW,326,5.0,11.0,45,0.00,,,0.00,0.0,WUHU216DAVISWMX,2013-06-04 18:58:00,
2013-06-04 15:03:00,67.6,42.3,29.96,NNW,329,3.0,10.0,40,0.00,,,0.00,0.0,WUHU216DAVISWMX,2013-06-04 19:03:00,
2013-06-04 15:08:00,67.3,43.3,29.96,NW,325,6.0,14.0,42,0.00,,,0.00,0.0,WUHU216DAVISWMX,2013-06-04 19:08:00,
2013-06-04 15:13:00,67.8,45.0,29.96,NW,315,2.0,14.0,44,0.00,,,0.00,0.0,WUHU216DAVISWMX,2013-06-04 19:13:00,
2013-06-04 15:18:00,68.0,44.6,29.95,WNW,303,1.0,10.0,43,0.00,,,0.00,0.0,WUHU216DAVISWMX,2013-06-04 19:18:00,
2013-06-04 15:23:00,67.1,44.4,29.95,NW,315,6.0,16.0,44,0.00,,,0.00,0.0,WUHU216DAVISWMX,2013-06-04 19:23:00,
2013-06-04 15:28:00,67.2,45.1,29.95,NW,306,4.0,16.0,45,0.00,,,0.00,0.0,WUHU216DAVISWMX,2013-06-04 19:28:00,
2013-06-04 15:33:00,67.9,45.1,29.95,WNW,302,7.0,10.0,44,0.00,,,0.00,0.0,WUHU216DAVISWMX,2013-06-04 19:33:00,
2013-06-04 15:38:00,67.8,45.0,29.95,NW,313,2.0,12.0,44,0.00,,,0.00,0.0,WUHU216DAVISWMX,2013-06-04 19:38:00,
2013-06-04 15:43:00,68.0,45.2,29.94,NNW,330,6.0,13.0,44,0.00,,,0.00,0.0,WUHU216DAVISWMX,2013-06-04 19:43:00,
2013-06-04 15:48:00,68.3,45.5,29.95,NW,308,3.0,13.0,44,0.00,,,0.00,0.0,WUHU216DAVISWMX,2013-06-04 19:48:00,
2013-06-04 15:53:00,68.7,41.9,29.95,NW,307,1.0,13.0,38,0.00,,,0.00,0.0,WUHU216DAVISWMX,2013-06-04 19:53:00,
2013-06-04 15:58:00,68.8,42.7,29.95,NW,311,6.0,13.0,39,0.00,,,0.00,0.0,WUHU216DAVISWMX,2013-06-04 19:58:00,
2013-06-04 16:03:00,69.2,43.0,29.95,WNW,300,0.0,13.0,39,0.00,,,0.00,0.0,WUHU216DAVISWMX,2013-06-04 20:03:00,
2013-06-04 16:08:00,69.3,42.4,29.95,NW,318,11.0,11.0,38,0.00,,,0.00,0.0,WUHU216DAVISWMX,2013-06-04 20:08:00,
2013-06-04 16:13:00,69.3,42.4,29.95,NW,304,10.0,14.0,38,0.00,,,0.00,0.0,WUHU216DAVISWMX,2013-06-04 20:13:00,
2013-06-04 16:18:00,68.7,42.6,29.95,NW,325,8.0,14.0,39,0.00,,,0.00,0.0,WUHU216DAVISWMX,2013-06-04 20:18:00,
2013-06-04 16:23:00,68.6,42.5,29.95,NW,309,11.0,18.0,39,0.00,,,0.00,0.0,WUHU216DAVISWMX,2013-06-04 20:23:00,
2013-06-04 16:28:00,68.8,43.4,29.95,NW,306,5.0,18.0,40,0.00,,,0.00,0.0,WUHU216DAVISWMX,2013-06-04 20:28:00,
2013-06-04 16:33:00,69.1,42.3,29.95,North,1,5.0,10.0,38,0.00,,,0.00,0.0,WUHU216DAVISWMX,2013-06-04 20:33:00,
2013-06-04 16:38:00,69.0,42.9,29.95,WNW,293,6.0,9.0,39,0.00,,,0.00,0.0,WUHU216DAVISWMX,2013-06-04 20:38:00,
2013-06-04 16:43:00,69.3,42.4,29.95,WNW,303,6.0,9.0,38,0.00,,,0.00,0.0,WUHU216DAVISWMX,2013-06-04 20:43:00,
2013-06-04 16:48:00,69.0,42.2,29.95,NW,326,6.0,9.0,38,0.00,,,0.00,0.0,WUHU216DAVISWMX,2013-06-04 20:48:00,
2013-06-04 16:53:00,68.9,42.1,29.95,WNW,284,6.0,11.0,38,0.00,,,0.00,0.0,WUHU216DAVISWMX,2013-06-04 20:53:00,
2013-06-04 16:58:00,68.7,43.3,29.95,NNW,331,1.0,11.0,40,0.00,,,0.00,0.0,WUHU216DAVISWMX,2013-06-04 20:58:00,
2013-06-04 17:03:00,68.9,42.8,29.95,WNW,289,10.0,10.0,39,0.00,,,0.00,0.0,WUHU216DAVISWMX,2013-06-04 21:03:00,
2013-06-04 17:08:00,68.7,42.6,29.95,NW,306,4.0,10.0,39,0.00,,,0.00,0.0,WUHU216DAVISWMX,2013-06-04 21:08:00,
2013-06-04 17:13:00,68.5,42.4,29.96,WNW,296,4.0,12.0,39,0.00,,,0.00,0.0,WUHU216DAVISWMX,2013-06-04 21:13:00,
2013-06-04 17:18:00,68.4,43.0,29.96,WNW,302,3.0,12.0,40,0.00,,,0.00,0.0,WUHU216DAVISWMX,2013-06-04 21:18:00,
2013-06-04 17:23:00,68.6,42.5,29.96,NW,308,8.0,11.0,39,0.00,,,0.00,0.0,WUHU216DAVISWMX,2013-06-04 21:23:00,
2013-06-04 17:28:00,68.6,42.5,29.96,NW,306,5.0,12.0,39,0.00,,,0.00,0.0,WUHU216DAVISWMX,2013-06-04 21:28:00,
2013-06-04 17:33:00,68.6,42.5,29.96,WNW,287,5.0,12.0,39,0.00,,,0.00,0.0,WUHU216DAVISWMX,2013-06-04 21:33:00,
2013-06-04 17:38:00,68.6,42.5,29.95,NW,312,9.0,10.0,39,0.00,,,0.00,0.0,WUHU216DAVISWMX,2013-06-04 21:38:00,
2013-06-04 17:43:00,68.6,43.2,29.96,NW,325,2.0,14.0,40,0.00,,,0.00,0.0,WUHU216DAVISWMX,2013-06-04 21:43:00,
2013-06-04 17:48:00,68.6,43.2,29.95,NW,318,8.0,14.0,40,0.00,,,0.00,0.0,WUHU216DAVISWMX,2013-06-04 21:48:00,
2013-06-04 17:53:00,68.7,43.3,29.96,NW,320,4.0,10.0,40,0.00,,,0.00,0.0,WUHU216DAVISWMX,2013-06-04 21:53:00,
2013-06-04 17:58:00,68.6,42.5,29.95,NW,320,3.0,12.0,39,0.00,,,0.00,0.0,WUHU216DAVISWMX,2013-06-04 21:58:00,
2013-06-04 18:03:00,68.4,42.3,29.96,West,280,2.0,13.0,39,0.00,,,0.00,0.0,WUHU216DAVISWMX,2013-06-04 22:03:00,
2013-06-04 18:08:00,68.4,43.0,29.96,WNW,292,9.0,13.0,40,0.00,,,0.00,0.0,WUHU216DAVISWMX,2013-06-04 22:08:00,
2013-06-04 18:13:00,68.3,42.9,29.96,NNW,328,7.0,12.0,40,0.00,,,0.00,0.0,WUHU216DAVISWMX,2013-06-04 22:13:00,
2013-06-04 18:18:00,68.3,42.9,29.96,NW,318,7.0,10.0,40,0.00,,,0.00,0.0,WUHU216DAVISWMX,2013-06-04 22:18:00,
2013-06-04 18:23:00,68.4,43.7,29.96,NW,313,1.0,11.0,41,0.00,,,0.00,0.0,WUHU216DAVISWMX,2013-06-04 22:23:00,
2013-06-04 18:28:00,68.5,43.1,29.96,NW,319,0.0,11.0,40,0.00,,,0.00,0.0,WUHU216DAVISWMX,2013-06-04 22:28:00,
2013-06-04 18:33:00,68.5,43.1,29.97,NW,306,6.0,9.0,40,0.00,,,0.00,0.0,WUHU216DAVISWMX,2013-06-04 22:33:00,
2013-06-04 18:38:00,68.4,43.7,29.98,NW,308,3.0,9.0,41,0.00,,,0.00,0.0,WUHU216DAVISWMX,2013-06-04 22:38:00,
2013-06-04 18:43:00,68.3,42.9,29.98,WNW,301,1.0,9.0,40,0.00,,,0.00,0.0,WUHU216DAVISWMX,2013-06-04 22:43:00,
2013-06-04 18:48:00,68.3,42.9,29.98,NNW,335,3.0,9.0,40,0.00,,,0.00,0.0,WUHU216DAVISWMX,2013-06-04 22:48:00,
2013-06-04 18:53:00,68.2,43.5,29.98,WNW,301,3.0,15.0,41,0.00,,,0.00,0.0,WUHU216DAVISWMX,2013-06-04 22:53:00,
2013-06-04 18:58:00,68.1,43.4,29.98,WNW,300,1.0,15.0,41,0.00,,,0.00,0.0,WUHU216DAVISWMX,2013-06-04 22:58:00,
2013-06-04 19:03:00,68.0,43.3,29.98,NW,321,3.0,14.0,41,0.00,,,0.00,0.0,WUHU216DAVISWMX,2013-06-04 23:03:00,
2013-06-04 19:08:00,67.9,43.2,29.98,NW,321,3.0,10.0,41,0.00,,,0.00,0.0,WUHU216DAVISWMX,2013-06-04 23:08:00,
2013-06-04 19:52:00,66.5,44.5,30.00,NW,317,3.0,3.0,45,0.00,,,0.00,0.0,WUHU216DAVISWMX,2013-06-04 23:52:00,
2013-06-04 19:57:00,66.1,45.3,30.00,NW,317,0.0,3.0,47,0.00,,,0.00,0.0,WUHU216DAVISWMX,2013-06-04 23:57:00,
2013-06-04 20:02:00,65.7,46.0,30.01,NNW,327,0.0,6.0,49,0.00,,,0.00,0.0,WUHU216DAVISWMX,2013-06-05 00:02:00,
2013-06-04 20:07:00,65.5,46.4,30.01,NW,326,0.0,6.0,50,0.00,,,0.00,0.0,WUHU216DAVISWMX,2013-06-05 00:07:00,
2013-06-04 20:12:00,65.1,45.5,30.01,NW,326,2.0,3.0,49,0.00,,,0.00,0.0,WUHU216DAVISWMX,2013-06-05 00:12:00,
2013-06-04 20:17:00,65.0,45.9,30.01,NNW,327,1.0,3.0,50,0.00,,,0.00,0.0,WUHU216DAVISWMX,2013-06-05 00:17:00,
2013-06-04 20:22:00,64.6,45.0,30.01,NNW,327,0.0,3.0,49,0.00,,,0.00,0.0,WUHU216DAVISWMX,2013-06-05 00:22:00,
2013-06-04 20:27:00,64.2,45.7,30.02,NNW,327,0.0,1.0,51,0.00,,,0.00,0.0,WUHU216DAVISWMX,2013-06-05 00:27:00,
2013-06-04 20:32:00,63.7,46.3,30.02,NNW,327,1.0,2.0,53,0.00,,,0.00,0.0,WUHU216DAVISWMX,2013-06-05 00:32:00,
2013-06-04 20:37:00,63.4,45.5,30.02,NNW,327,0.0,2.0,52,0.00,,,0.00,0.0,WUHU216DAVISWMX,2013-06-05 00:37:00,
2013-06-04 20:42:00,63.1,44.7,30.03,NNW,327,0.0,1.0,51,0.00,,,0.00,0.0,WUHU216DAVISWMX,2013-06-05 00:42:00,